createdAt,value
2022-09-16T00:00:29.987Z,100.00
2022-09-16T00:02:57.237Z,100.00
2022-09-16T00:05:24.249Z,100.00
2022-09-16T00:07:50.987Z,100.00
2022-09-16T00:10:17.632Z,100.00
2022-09-16T00:12:44.280Z,100.00
2022-09-16T00:15:11.364Z,100.00
2022-09-16T00:17:38.471Z,100.00
2022-09-16T00:20:06.466Z,99.98
2022-09-16T00:22:33.387Z,99.92
2022-09-16T00:25:00.025Z,100.00
2022-09-16T00:27:26.750Z,100.00
2022-09-16T00:29:53.705Z,100.00
2022-09-16T00:32:20.269Z,100.00
2022-09-16T00:34:46.842Z,100.00
2022-09-16T00:37:13.278Z,100.00
2022-09-16T00:39:39.752Z,100.00
2022-09-16T00:42:11.954Z,100.00
2022-09-16T00:44:59.619Z,100.00
2022-09-16T00:47:43.237Z,100.00
2022-09-16T00:50:10.063Z,100.00
2022-09-16T00:52:37.884Z,100.00
2022-09-16T00:55:08.727Z,100.00
2022-09-16T00:57:36.062Z,100.00
2022-09-16T01:00:05.793Z,100.00
2022-09-16T01:02:32.412Z,100.00
2022-09-16T01:05:22.333Z,100.00
2022-09-16T01:07:51.202Z,100.00
2022-09-16T01:10:21.172Z,100.00
2022-09-16T01:12:57.275Z,100.00
2022-09-16T01:15:31.968Z,100.00
2022-09-16T01:18:04.606Z,100.00
2022-09-16T01:20:58.875Z,100.00
2022-09-16T01:24:16.616Z,100.00
2022-09-16T01:26:58.194Z,100.00
2022-09-16T01:29:41.804Z,100.00
2022-09-16T01:32:17.252Z,100.00
2022-09-16T01:35:10.665Z,100.00
2022-09-16T01:37:47.270Z,100.00
2022-09-16T01:40:21.010Z,99.85
2022-09-16T01:43:10.505Z,100.00
2022-09-16T01:45:48.830Z,100.00
2022-09-16T01:48:37.423Z,100.00
2022-09-16T01:51:15.890Z,100.00
2022-09-16T01:53:51.622Z,100.00
2022-09-16T01:56:28.859Z,100.00
2022-09-16T01:59:17.057Z,100.00
2022-09-16T02:01:57.501Z,100.00
2022-09-16T02:04:29.840Z,100.00
2022-09-16T02:06:59.792Z,100.00
2022-09-16T02:09:32.615Z,100.00
2022-09-16T02:12:05.584Z,100.00
2022-09-16T02:14:39.494Z,100.00
2022-09-16T02:17:10.356Z,100.00
2022-09-16T02:20:06.373Z,100.00
2022-09-16T02:22:39.219Z,100.00
2022-09-16T02:25:10.431Z,100.00
2022-09-16T02:27:39.258Z,100.00
2022-09-16T02:30:09.850Z,100.00
2022-09-16T02:32:42.134Z,100.00
2022-09-16T02:35:12.300Z,100.00
2022-09-16T02:37:51.267Z,100.00
2022-09-16T02:40:26.946Z,100.00
2022-09-16T02:42:53.768Z,100.00
2022-09-16T02:45:26.580Z,100.00
2022-09-16T02:48:04.977Z,100.00
2022-09-16T02:50:52.616Z,100.00
2022-09-16T02:53:40.675Z,100.00
2022-09-16T02:56:31.360Z,100.00
2022-09-16T02:58:58.246Z,100.00
2022-09-16T03:01:25.856Z,100.00
2022-09-16T03:03:55.172Z,100.00
2022-09-16T03:06:25.022Z,100.00
2022-09-16T03:08:54.122Z,100.00
2022-09-16T03:11:38.207Z,100.00
2022-09-16T03:14:21.450Z,100.00
2022-09-16T03:17:03.091Z,100.00
2022-09-16T03:20:03.655Z,100.00
2022-09-16T03:22:42.143Z,100.00
2022-09-16T03:25:39.567Z,100.00
2022-09-16T03:28:16.850Z,100.00
2022-09-16T03:31:08.880Z,100.00
2022-09-16T03:34:12.690Z,100.00
2022-09-16T03:36:52.590Z,100.00
2022-09-16T03:39:19.233Z,100.00
2022-09-16T03:41:45.919Z,100.00
2022-09-16T03:44:12.354Z,100.00
2022-09-16T03:46:39.503Z,100.00
2022-09-16T03:49:06.043Z,100.00
2022-09-16T03:51:32.636Z,100.00
2022-09-16T03:53:59.151Z,100.00
2022-09-16T03:56:25.626Z,100.00
2022-09-16T03:58:52.385Z,100.00
2022-09-16T04:01:19.041Z,100.00
2022-09-16T04:03:45.585Z,100.00
2022-09-16T04:06:12.039Z,100.00
2022-09-16T04:08:39.770Z,100.00
2022-09-16T04:11:07.052Z,100.00
2022-09-16T04:13:35.220Z,100.00
2022-09-16T04:16:03.985Z,100.00
2022-09-16T04:18:31.992Z,100.00
2022-09-16T04:20:59.962Z,100.00
2022-09-16T04:23:27.752Z,100.00
2022-09-16T04:25:59.067Z,100.00
2022-09-16T04:28:26.105Z,100.00
2022-09-16T04:30:52.769Z,100.00
2022-09-16T04:33:19.705Z,100.00
2022-09-16T04:35:46.261Z,100.00
2022-09-16T04:38:12.717Z,100.00
2022-09-16T04:40:40.091Z,100.00
2022-09-16T04:43:06.716Z,100.00
2022-09-16T04:45:33.179Z,100.00
2022-09-16T04:47:59.649Z,100.00
2022-09-16T04:50:27.623Z,100.00
2022-09-16T04:52:54.139Z,100.00
2022-09-16T04:55:23.301Z,100.00
2022-09-16T04:57:50.842Z,100.00
2022-09-16T05:00:17.396Z,100.00
2022-09-16T05:02:45.688Z,100.00
2022-09-16T05:05:12.532Z,100.00
2022-09-16T05:07:39.057Z,100.00
2022-09-16T05:10:06.067Z,100.00
2022-09-16T05:12:32.540Z,100.00
2022-09-16T05:14:59.069Z,100.00
2022-09-16T05:17:49.379Z,100.00
2022-09-16T05:20:12.686Z,100.00
2022-09-16T05:22:39.469Z,100.00
2022-09-16T05:25:06.488Z,100.00
2022-09-16T05:27:34.148Z,100.00
2022-09-16T05:30:00.591Z,100.00
2022-09-16T05:32:27.510Z,100.00
2022-09-16T05:34:54.783Z,100.00
2022-09-16T05:37:21.295Z,100.00
2022-09-16T05:39:47.791Z,100.00
2022-09-16T05:42:14.368Z,100.00
2022-09-16T05:44:40.834Z,99.85
2022-09-16T05:47:07.327Z,99.87
2022-09-16T05:49:33.812Z,100.00
2022-09-16T05:52:00.289Z,100.00
2022-09-16T05:54:26.723Z,99.97
2022-09-16T05:56:53.212Z,100.00
2022-09-16T05:59:19.913Z,99.75
2022-09-16T06:01:46.696Z,99.11
2022-09-16T06:04:15.206Z,98.91
2022-09-16T06:06:46.879Z,99.19
2022-09-16T06:09:17.989Z,98.99
2022-09-16T06:11:46.861Z,98.60
2022-09-16T06:14:14.993Z,99.08
2022-09-16T06:16:41.926Z,98.98
2022-09-16T06:19:13.112Z,99.09
2022-09-16T06:21:40.734Z,98.98
2022-09-16T06:24:08.855Z,98.98
2022-09-16T06:26:40.340Z,98.96
2022-09-16T06:29:07.160Z,99.35
2022-09-16T06:31:35.356Z,99.41
2022-09-16T06:34:02.469Z,99.43
2022-09-16T06:36:34.892Z,99.64
2022-09-16T06:39:01.667Z,99.90
2022-09-16T06:41:28.438Z,99.80
2022-09-16T06:43:58.078Z,100.00
2022-09-16T06:46:26.702Z,99.52
2022-09-16T06:48:58.515Z,99.55
2022-09-16T06:51:29.250Z,99.64
2022-09-16T06:54:00.787Z,99.36
2022-09-16T06:56:27.403Z,99.44
2022-09-16T06:58:55.816Z,98.77
2022-09-16T07:01:25.021Z,99.41
2022-09-16T07:03:53.462Z,99.21
2022-09-16T07:06:22.147Z,98.77
2022-09-16T07:08:49.188Z,98.91
2022-09-16T07:11:20.931Z,99.51
2022-09-16T07:13:49.166Z,99.08
2022-09-16T07:16:18.546Z,98.84
2022-09-16T07:18:46.872Z,97.31
2022-09-16T07:21:15.658Z,96.85
2022-09-16T07:23:43.388Z,96.84
2022-09-16T07:26:17.671Z,97.46
2022-09-16T07:28:48.523Z,97.65
2022-09-16T07:31:19.233Z,97.48
2022-09-16T07:33:49.621Z,97.16
2022-09-16T07:36:18.863Z,96.79
2022-09-16T07:38:45.627Z,94.94
2022-09-16T07:41:18.544Z,94.33
2022-09-16T07:43:45.855Z,93.62
2022-09-16T07:46:13.883Z,93.11
2022-09-16T07:48:40.774Z,93.48
2022-09-16T07:51:10.544Z,93.31
2022-09-16T07:53:37.194Z,92.78
2022-09-16T07:56:06.311Z,93.91
2022-09-16T07:58:32.954Z,91.99
2022-09-16T08:01:04.149Z,91.58
2022-09-16T08:03:32.395Z,89.56
2022-09-16T08:06:04.296Z,90.50
2022-09-16T08:08:31.421Z,91.06
2022-09-16T08:10:59.426Z,90.12
2022-09-16T08:13:27.653Z,90.03
2022-09-16T08:15:54.461Z,89.13
2022-09-16T08:18:21.512Z,87.13
2022-09-16T08:20:48.112Z,86.01
2022-09-16T08:23:14.691Z,84.84
2022-09-16T08:25:42.345Z,84.95
2022-09-16T08:28:17.089Z,85.70
2022-09-16T08:30:44.231Z,85.98
2022-09-16T08:33:10.888Z,86.16
2022-09-16T08:35:37.405Z,85.98
2022-09-16T08:38:06.857Z,86.46
2022-09-16T08:40:36.350Z,86.92
2022-09-16T08:43:13.306Z,86.66
2022-09-16T08:45:50.211Z,84.97
2022-09-16T08:48:48.520Z,81.63
2022-09-16T08:51:19.151Z,82.26
2022-09-16T08:53:57.692Z,81.04
2022-09-16T08:56:27.522Z,80.50
2022-09-16T08:58:57.450Z,77.15
2022-09-16T09:01:50.463Z,77.70
2022-09-16T09:04:17.381Z,77.95
2022-09-16T09:06:59.339Z,77.51
2022-09-16T09:09:28.536Z,75.96
2022-09-16T09:12:31.054Z,76.16
2022-09-16T09:15:03.959Z,78.65
2022-09-16T09:17:48.931Z,80.07
2022-09-16T09:20:50.805Z,79.17
2022-09-16T09:23:58.434Z,76.77
2022-09-16T09:26:42.625Z,75.09
2022-09-16T09:29:18.173Z,75.55
2022-09-16T09:32:06.258Z,76.05
2022-09-16T09:34:52.057Z,73.71
2022-09-16T09:37:42.962Z,73.14
2022-09-16T09:40:49.699Z,70.42
2022-09-16T09:43:24.659Z,72.81
2022-09-16T09:45:58.483Z,71.74
2022-09-16T09:48:37.962Z,70.83
2022-09-16T09:51:32.471Z,71.17
2022-09-16T09:54:06.116Z,69.89
2022-09-16T09:56:40.937Z,72.44
2022-09-16T09:59:31.093Z,71.34
2022-09-16T10:01:58.744Z,69.99
2022-09-16T10:04:25.377Z,68.63
2022-09-16T10:06:54.598Z,67.46
2022-09-16T10:09:22.640Z,68.12
2022-09-16T10:11:52.526Z,67.51
2022-09-16T10:14:31.281Z,68.29
2022-09-16T10:17:02.878Z,68.41
2022-09-16T10:19:32.777Z,67.52
2022-09-16T10:22:21.613Z,68.49
2022-09-16T10:24:56.387Z,69.17
2022-09-16T10:27:29.624Z,68.60
2022-09-16T10:30:16.492Z,67.30
2022-09-16T10:32:54.342Z,66.31
2022-09-16T10:35:24.365Z,66.27
2022-09-16T10:37:59.699Z,67.53
2022-09-16T10:40:27.077Z,66.52
2022-09-16T10:42:59.727Z,65.93
2022-09-16T10:45:27.855Z,65.32
2022-09-16T10:48:19.848Z,63.06
2022-09-16T10:50:57.203Z,61.62
2022-09-16T10:53:31.296Z,61.04
2022-09-16T10:56:04.282Z,63.00
2022-09-16T10:58:31.101Z,61.02
2022-09-16T11:01:03.594Z,59.55
2022-09-16T11:03:40.658Z,58.34
2022-09-16T11:06:37.734Z,59.30
2022-09-16T11:09:31.485Z,59.08
2022-09-16T11:12:17.413Z,60.57
2022-09-16T11:15:22.769Z,60.10
2022-09-16T11:17:55.718Z,59.51
2022-09-16T11:20:44.059Z,59.62
2022-09-16T11:23:16.796Z,58.96
2022-09-16T11:26:36.855Z,58.82
2022-09-16T11:29:27.413Z,59.62
2022-09-16T11:32:16.069Z,59.46
2022-09-16T11:35:05.812Z,59.55
2022-09-16T11:38:07.862Z,60.19
2022-09-16T11:40:58.139Z,59.80
2022-09-16T11:43:55.660Z,59.41
2022-09-16T11:46:49.183Z,58.63
2022-09-16T11:49:24.798Z,58.98
2022-09-16T11:52:04.984Z,57.82
2022-09-16T11:54:58.417Z,57.59
2022-09-16T11:57:29.759Z,57.46
2022-09-16T12:00:00.816Z,58.22
2022-09-16T12:02:42.685Z,56.89
2022-09-16T12:05:18.916Z,56.62
2022-09-16T12:08:02.979Z,55.39
2022-09-16T12:10:46.941Z,56.68
2022-09-16T12:13:20.770Z,54.94
2022-09-16T12:16:02.184Z,54.33
2022-09-16T12:18:33.244Z,55.82
2022-09-16T12:21:14.383Z,55.61
2022-09-16T12:23:45.354Z,55.87
2022-09-16T12:26:24.095Z,54.90
2022-09-16T12:29:03.931Z,54.03
2022-09-16T12:31:51.581Z,54.70
2022-09-16T12:34:26.616Z,54.66
2022-09-16T12:37:01.047Z,54.41
2022-09-16T12:39:28.767Z,55.66
2022-09-16T12:42:07.026Z,54.95
2022-09-16T12:44:52.014Z,54.60
2022-09-16T12:47:21.307Z,52.60
2022-09-16T12:50:09.436Z,54.25
2022-09-16T12:52:46.628Z,55.80
2022-09-16T12:55:35.355Z,57.33
2022-09-16T12:58:22.519Z,56.39
2022-09-16T13:01:30.253Z,56.58
2022-09-16T13:04:04.569Z,56.67
2022-09-16T13:06:36.685Z,56.78
2022-09-16T13:09:23.393Z,56.08
2022-09-16T13:15:07.094Z,55.75
2022-09-16T13:17:37.206Z,55.21
2022-09-16T13:20:33.443Z,55.23
2022-09-16T13:23:08.821Z,54.73
2022-09-16T13:25:55.003Z,54.39
2022-09-16T13:28:26.712Z,55.02
2022-09-16T13:30:53.477Z,54.87
2022-09-16T13:33:29.228Z,55.42
2022-09-16T13:36:22.530Z,56.83
2022-09-16T13:39:00.590Z,62.74
2022-09-16T13:41:37.702Z,67.79
2022-09-16T13:44:39.852Z,70.93
2022-09-16T13:47:09.121Z,73.83
2022-09-16T13:49:44.897Z,74.62
2022-09-16T13:52:13.324Z,73.22
2022-09-16T13:55:09.575Z,71.90
2022-09-16T13:57:53.189Z,71.72
2022-09-16T14:01:01.138Z,73.21
2022-09-16T14:03:34.195Z,73.18
2022-09-16T14:06:26.891Z,74.28
2022-09-16T14:08:53.469Z,72.76
2022-09-16T14:11:35.734Z,71.78
2022-09-16T14:14:07.651Z,70.25
2022-09-16T14:16:39.910Z,70.04
2022-09-16T14:19:18.802Z,69.54
2022-09-16T14:21:47.901Z,68.99
2022-09-16T14:24:19.465Z,67.93
2022-09-16T14:26:57.220Z,68.10
2022-09-16T14:29:27.122Z,67.23
2022-09-16T14:31:55.668Z,66.81
2022-09-16T14:34:30.824Z,65.81
2022-09-16T14:36:57.978Z,66.90
2022-09-16T14:39:26.929Z,66.88
2022-09-16T14:42:16.016Z,64.20
2022-09-16T14:44:46.696Z,63.68
2022-09-16T14:47:50.539Z,64.40
2022-09-16T14:50:25.300Z,62.66
2022-09-16T14:53:00.747Z,63.24
2022-09-16T14:55:30.989Z,63.76
2022-09-16T14:57:58.781Z,63.78
2022-09-16T15:00:47.889Z,62.72
2022-09-16T15:03:31.181Z,61.83
2022-09-16T15:06:04.944Z,61.96
2022-09-16T15:08:55.804Z,62.48
2022-09-16T15:11:47.123Z,62.82
2022-09-16T15:14:13.521Z,62.30
2022-09-16T15:16:44.211Z,62.45
2022-09-16T15:19:24.977Z,61.75
2022-09-16T15:21:52.165Z,61.58
2022-09-16T15:24:27.673Z,61.97
2022-09-16T15:26:54.937Z,62.30
2022-09-16T15:29:24.388Z,61.62
2022-09-16T15:31:51.761Z,62.03
2022-09-16T15:34:21.092Z,62.07
2022-09-16T15:36:56.335Z,60.74
2022-09-16T15:39:30.149Z,61.27
2022-09-16T15:42:26.277Z,61.46
2022-09-16T15:44:56.517Z,61.86
2022-09-16T15:47:33.138Z,61.87
2022-09-16T15:50:06.583Z,61.21
2022-09-16T15:52:36.127Z,61.94
2022-09-16T15:55:05.241Z,61.26
2022-09-16T15:57:38.811Z,61.96
2022-09-16T16:00:16.177Z,61.36
2022-09-16T16:03:05.227Z,61.70
2022-09-16T16:05:32.995Z,62.21
2022-09-16T16:08:09.667Z,64.96
2022-09-16T16:10:36.512Z,68.37
2022-09-16T16:13:04.683Z,73.83
2022-09-16T16:15:35.013Z,79.07
2022-09-16T16:18:05.026Z,82.57
2022-09-16T16:20:34.083Z,84.89
2022-09-16T16:23:02.266Z,84.49
2022-09-16T16:25:29.521Z,86.29
2022-09-16T16:27:58.225Z,87.87
2022-09-16T16:30:24.686Z,87.88
2022-09-16T16:32:51.151Z,89.36
2022-09-16T16:35:17.638Z,89.16
2022-09-16T16:37:46.755Z,89.19
2022-09-16T16:40:14.986Z,89.29
2022-09-16T16:42:43.576Z,89.28
2022-09-16T16:45:13.184Z,89.02
2022-09-16T16:47:40.116Z,89.51
2022-09-16T16:50:08.313Z,89.42
2022-09-16T16:52:34.801Z,89.56
2022-09-16T16:55:01.263Z,89.46
2022-09-16T16:57:27.922Z,89.11
2022-09-16T16:59:54.389Z,88.65
2022-09-16T17:02:20.994Z,87.41
2022-09-16T17:04:47.527Z,87.08
2022-09-16T17:07:25.845Z,86.61
2022-09-16T17:09:56.911Z,86.86
2022-09-16T17:12:23.410Z,86.09
2022-09-16T17:14:49.885Z,85.66
2022-09-16T17:17:16.423Z,85.58
2022-09-16T17:19:42.898Z,85.81
2022-09-16T17:22:09.642Z,85.71
2022-09-16T17:24:36.603Z,85.99
2022-09-16T17:27:04.150Z,86.21
2022-09-16T17:29:30.644Z,86.05
2022-09-16T17:31:57.350Z,85.90
2022-09-16T17:34:26.402Z,85.46
2022-09-16T17:36:53.338Z,86.11
2022-09-16T17:39:21.522Z,86.26
2022-09-16T17:41:49.254Z,85.46
2022-09-16T17:44:17.040Z,84.51
2022-09-16T17:46:44.773Z,84.40
2022-09-16T17:49:20.230Z,83.66
2022-09-16T17:51:46.785Z,83.11
2022-09-16T17:54:13.961Z,82.43
2022-09-16T17:56:44.881Z,82.45
2022-09-16T17:59:15.665Z,82.71
2022-09-16T18:01:42.194Z,82.22
2022-09-16T18:04:09.053Z,82.35
2022-09-16T18:06:41.663Z,82.85
2022-09-16T18:09:08.528Z,82.60
2022-09-16T18:11:36.658Z,82.52
2022-09-16T18:14:05.569Z,82.61
2022-09-16T18:16:32.706Z,82.64
2022-09-16T18:19:01.465Z,82.31
2022-09-16T18:21:28.528Z,82.86
2022-09-16T18:24:02.413Z,82.43
2022-09-16T18:26:30.375Z,82.52
2022-09-16T18:29:12.833Z,81.85
2022-09-16T18:31:42.170Z,81.67
2022-09-16T18:34:09.052Z,82.05
2022-09-16T18:36:37.586Z,82.40
2022-09-16T18:39:05.645Z,82.28
2022-09-16T18:41:36.538Z,82.08
2022-09-16T18:44:07.382Z,81.92
2022-09-16T18:46:36.630Z,82.33
2022-09-16T18:49:04.124Z,82.17
2022-09-16T18:51:30.587Z,81.46
2022-09-16T18:54:00.750Z,81.11
2022-09-16T18:56:29.249Z,81.29
2022-09-16T18:59:20.515Z,81.43
2022-09-16T19:01:48.840Z,81.15
2022-09-16T19:04:18.293Z,81.10
2022-09-16T19:06:47.823Z,81.05
2022-09-16T19:09:16.710Z,81.43
2022-09-16T19:11:43.810Z,81.73
2022-09-16T19:14:13.923Z,82.27
2022-09-16T19:16:45.524Z,82.04
2022-09-16T19:19:14.759Z,82.31
2022-09-16T19:21:42.407Z,82.40
2022-09-16T19:24:14.344Z,82.90
2022-09-16T19:26:42.287Z,82.47
2022-09-16T19:29:09.856Z,81.53
2022-09-16T19:31:39.560Z,81.77
2022-09-16T19:34:06.792Z,81.84
2022-09-16T19:36:35.475Z,81.85
2022-09-16T19:39:03.256Z,82.54
2022-09-16T19:41:31.928Z,82.67
2022-09-16T19:44:01.207Z,83.59
2022-09-16T19:46:29.736Z,84.29
2022-09-16T19:48:56.507Z,84.04
2022-09-16T19:51:24.538Z,83.83
2022-09-16T19:53:52.571Z,83.94
2022-09-16T19:56:24.699Z,84.71
2022-09-16T19:58:52.959Z,84.75
2022-09-16T20:01:27.640Z,85.29
2022-09-16T20:03:54.802Z,85.73
2022-09-16T20:06:32.469Z,86.46
2022-09-16T20:09:00.992Z,87.05
2022-09-16T20:11:33.689Z,87.70
2022-09-16T20:14:03.313Z,88.08
2022-09-16T20:16:35.585Z,88.24
2022-09-16T20:19:07.254Z,88.82
2022-09-16T20:21:35.120Z,88.69
2022-09-16T20:24:05.659Z,88.84
2022-09-16T20:26:33.262Z,89.21
2022-09-16T20:29:00.190Z,90.00
2022-09-16T20:31:29.535Z,90.97
2022-09-16T20:33:56.035Z,91.82
2022-09-16T20:36:24.502Z,92.46
2022-09-16T20:38:52.394Z,93.69
2022-09-16T20:41:25.159Z,94.28
2022-09-16T20:43:52.453Z,95.09
2022-09-16T20:46:25.181Z,95.18
2022-09-16T20:48:54.469Z,95.25
2022-09-16T20:51:23.981Z,95.10
2022-09-16T20:54:01.764Z,95.63
2022-09-16T20:56:37.995Z,95.88
2022-09-16T20:59:07.418Z,96.10
2022-09-16T21:01:35.227Z,95.73
2022-09-16T21:04:04.765Z,95.73
2022-09-16T21:06:33.821Z,96.04
2022-09-16T21:09:03.966Z,95.25
2022-09-16T21:11:31.157Z,94.17
2022-09-16T21:14:08.571Z,94.17
2022-09-16T21:16:37.288Z,93.79
2022-09-16T21:19:06.612Z,94.08
2022-09-16T21:21:33.668Z,93.50
2022-09-16T21:24:01.309Z,93.54
2022-09-16T21:26:30.985Z,93.46
2022-09-16T21:29:00.313Z,93.90
2022-09-16T21:31:29.553Z,93.80
2022-09-16T21:33:56.828Z,94.13
2022-09-16T21:36:24.577Z,94.04
2022-09-16T21:38:51.642Z,94.12
2022-09-16T21:41:21.280Z,94.12
2022-09-16T21:43:55.427Z,94.51
2022-09-16T21:46:28.530Z,94.99
2022-09-16T21:49:01.996Z,95.00
2022-09-16T21:51:34.949Z,95.36
2022-09-16T21:54:06.760Z,95.31
2022-09-16T21:56:33.401Z,95.42
2022-09-16T21:59:00.234Z,95.41
2022-09-16T22:01:30.062Z,95.02
2022-09-16T22:04:21.573Z,95.31
2022-09-16T22:06:49.358Z,95.44
2022-09-16T22:09:18.150Z,95.00
2022-09-16T22:11:44.676Z,95.47
2022-09-16T22:14:11.314Z,95.43
2022-09-16T22:16:39.080Z,95.50
2022-09-16T22:19:12.309Z,96.05
2022-09-16T22:21:41.985Z,95.99
2022-09-16T22:24:09.447Z,95.74
2022-09-16T22:26:36.655Z,95.83
2022-09-16T22:29:03.609Z,95.61
2022-09-16T22:31:32.310Z,95.76
2022-09-16T22:34:01.189Z,95.66
2022-09-16T22:36:30.869Z,96.06
2022-09-16T22:39:04.292Z,96.16
2022-09-16T22:41:31.148Z,96.50
2022-09-16T22:43:57.617Z,97.24
2022-09-16T22:46:29.818Z,98.71
2022-09-16T22:48:57.992Z,100.00
2022-09-16T22:51:25.205Z,100.00
2022-09-16T22:53:51.691Z,100.00
2022-09-16T22:56:28.405Z,100.00
2022-09-16T22:58:56.947Z,100.00
2022-09-16T23:01:31.941Z,100.00
2022-09-16T23:04:01.678Z,100.00
2022-09-16T23:06:30.180Z,100.00
2022-09-16T23:08:57.114Z,100.00
2022-09-16T23:11:28.606Z,100.00
2022-09-16T23:13:56.449Z,100.00
2022-09-16T23:16:30.162Z,100.00
2022-09-16T23:18:58.821Z,100.00
2022-09-16T23:21:26.235Z,100.00
2022-09-16T23:23:56.114Z,100.00
2022-09-16T23:26:30.037Z,100.00
2022-09-16T23:28:58.876Z,100.00
2022-09-16T23:31:28.170Z,100.00
2022-09-16T23:33:55.182Z,100.00
2022-09-16T23:36:22.646Z,100.00
2022-09-16T23:38:49.300Z,100.00
2022-09-16T23:41:19.451Z,100.00
2022-09-16T23:43:47.149Z,100.00
2022-09-16T23:46:15.741Z,100.00
2022-09-16T23:48:44.142Z,100.00
2022-09-16T23:51:11.886Z,100.00
2022-09-16T23:53:39.501Z,100.00
2022-09-16T23:56:11.161Z,100.00
2022-09-16T23:58:37.951Z,100.00
